createdAt,value
2023-03-05T00:01:34.190Z,18.35
2023-03-05T00:04:04.158Z,20.80
2023-03-05T00:06:33.684Z,17.95
2023-03-05T00:09:02.424Z,21.05
2023-03-05T00:11:33.437Z,18.73
2023-03-05T00:14:04.097Z,27.00
2023-03-05T00:16:34.508Z,20.20
2023-03-05T00:19:03.347Z,20.42
2023-03-05T00:21:33.486Z,20.40
2023-03-05T00:24:03.847Z,19.63
2023-03-05T00:26:34.618Z,17.83
2023-03-05T00:29:03.359Z,20.92
2023-03-05T00:31:34.928Z,25.00
2023-03-05T00:34:05.584Z,27.95
2023-03-05T00:36:34.639Z,27.50
2023-03-05T00:39:03.041Z,21.73
2023-03-05T00:41:31.395Z,24.92
2023-03-05T00:43:59.892Z,19.10
2023-03-05T00:46:28.417Z,16.17
2023-03-05T00:48:58.428Z,17.38
2023-03-05T00:51:27.522Z,13.55
2023-03-05T00:53:56.375Z,20.67
2023-03-05T00:56:25.070Z,24.88
2023-03-05T00:58:54.308Z,17.65
2023-03-05T01:01:22.734Z,18.85
2023-03-05T01:03:51.873Z,19.08
2023-03-05T01:06:21.562Z,18.30
2023-03-05T01:08:50.192Z,32.58
2023-03-05T01:11:18.634Z,20.55
2023-03-05T01:13:46.990Z,19.38
2023-03-05T01:16:15.433Z,21.88
2023-03-05T01:18:43.794Z,20.23
2023-03-05T01:21:12.134Z,16.50
2023-03-05T01:23:41.805Z,13.82
2023-03-05T01:26:10.118Z,16.67
2023-03-05T01:28:38.737Z,16.70
2023-03-05T01:31:11.535Z,17.50
2023-03-05T01:33:40.487Z,21.25
2023-03-05T01:36:13.273Z,16.67
2023-03-05T01:38:43.437Z,21.02
2023-03-05T01:41:12.772Z,14.05
2023-03-05T01:43:43.064Z,11.20
2023-03-05T01:46:28.734Z,13.05
2023-03-05T01:49:03.275Z,15.00
2023-03-05T01:51:34.243Z,13.65
2023-03-05T01:54:07.190Z,13.13
2023-03-05T01:56:36.788Z,12.80
2023-03-05T01:59:05.448Z,16.50
2023-03-05T02:01:37.920Z,16.83
2023-03-05T02:04:07.837Z,16.50
2023-03-05T02:06:36.843Z,12.93
2023-03-05T02:09:06.678Z,18.98
2023-03-05T02:11:36.056Z,12.98
2023-03-05T02:14:07.827Z,11.63
2023-03-05T02:16:39.555Z,11.43
2023-03-05T02:19:13.023Z,11.82
2023-03-05T02:21:45.125Z,12.90
2023-03-05T02:24:14.778Z,7.75
2023-03-05T02:26:44.834Z,9.90
2023-03-05T02:29:18.133Z,12.27
2023-03-05T02:31:46.743Z,15.38
2023-03-05T02:34:15.912Z,9.68
2023-03-05T02:36:45.617Z,11.80
2023-03-05T02:39:13.984Z,12.05
2023-03-05T02:41:42.265Z,15.02
2023-03-05T02:44:11.055Z,14.55
2023-03-05T02:46:39.421Z,14.10
2023-03-05T02:49:07.760Z,8.82
2023-03-05T02:51:36.183Z,9.15
2023-03-05T02:54:06.191Z,11.75
2023-03-05T02:56:34.558Z,14.60
2023-03-05T02:59:02.879Z,10.90
2023-03-05T03:01:31.279Z,14.65
2023-03-05T03:04:00.043Z,18.20
2023-03-05T03:06:28.364Z,17.52
2023-03-05T03:08:56.816Z,17.40
2023-03-05T03:11:26.512Z,11.00
2023-03-05T03:13:54.798Z,10.18
2023-03-05T03:16:23.165Z,12.45
2023-03-05T03:18:51.548Z,9.07
2023-03-05T03:21:21.978Z,9.63
2023-03-05T03:23:50.392Z,12.20
2023-03-05T03:26:19.266Z,12.75
2023-03-05T03:28:48.972Z,8.40
2023-03-05T03:31:17.404Z,11.95
2023-03-05T03:33:46.370Z,20.13
2023-03-05T03:36:15.038Z,14.38
2023-03-05T03:38:43.488Z,14.05
2023-03-05T03:41:11.852Z,11.05
2023-03-05T03:43:40.152Z,11.82
2023-03-05T03:46:10.629Z,10.35
2023-03-05T03:48:38.955Z,15.10
2023-03-05T03:51:08.437Z,9.38
2023-03-05T03:53:36.835Z,10.73
2023-03-05T03:56:05.824Z,7.30
2023-03-05T03:58:34.421Z,11.43
2023-03-05T04:01:02.848Z,16.15
2023-03-05T04:03:32.629Z,11.90
2023-03-05T04:06:00.961Z,10.55
2023-03-05T04:08:29.287Z,8.88
2023-03-05T04:10:57.644Z,11.45
2023-03-05T04:13:25.985Z,9.65
2023-03-05T04:15:54.657Z,15.70
2023-03-05T04:18:24.014Z,13.52
2023-03-05T04:20:53.660Z,10.15
2023-03-05T04:23:22.126Z,10.40
2023-03-05T04:25:50.627Z,10.93
2023-03-05T04:28:18.952Z,7.13
2023-03-05T04:30:47.359Z,9.40
2023-03-05T04:33:15.906Z,17.35
2023-03-05T04:35:44.341Z,9.48
2023-03-05T04:38:14.114Z,11.63
2023-03-05T04:40:42.582Z,13.07
2023-03-05T04:43:10.914Z,7.53
2023-03-05T04:45:40.687Z,7.43
2023-03-05T04:48:09.894Z,11.85
2023-03-05T04:50:38.278Z,8.48
2023-03-05T04:53:07.214Z,8.65
2023-03-05T04:55:36.889Z,14.40
2023-03-05T04:58:05.234Z,9.23
2023-03-05T05:00:33.649Z,11.73
2023-03-05T05:03:02.050Z,12.30
2023-03-05T05:05:30.543Z,11.98
2023-03-05T05:07:59.264Z,11.68
2023-03-05T05:10:28.360Z,6.95
2023-03-05T05:12:59.534Z,10.35
2023-03-05T05:15:27.927Z,8.77
2023-03-05T05:17:56.237Z,10.40
2023-03-05T05:20:24.553Z,9.27
2023-03-05T05:22:52.886Z,9.85
2023-03-05T05:25:21.251Z,6.95
2023-03-05T05:27:49.548Z,9.30
2023-03-05T05:30:19.249Z,7.47
2023-03-05T05:32:47.596Z,8.23
2023-03-05T05:35:16.065Z,11.70
2023-03-05T05:37:44.372Z,8.90
2023-03-05T05:40:13.631Z,6.88
2023-03-05T05:42:41.990Z,12.52
2023-03-05T05:45:11.732Z,8.75
2023-03-05T05:47:41.409Z,10.50
2023-03-05T05:50:12.031Z,10.57
2023-03-05T05:52:40.619Z,10.57
2023-03-05T05:55:09.991Z,9.60
2023-03-05T05:57:38.612Z,14.73
2023-03-05T06:00:09.837Z,12.82
2023-03-05T06:02:39.399Z,9.90
2023-03-05T06:05:12.658Z,9.30
2023-03-05T06:07:41.337Z,10.35
2023-03-05T06:10:11.236Z,11.80
2023-03-05T06:12:39.577Z,12.10
2023-03-05T06:15:08.930Z,11.82
2023-03-05T06:17:37.296Z,9.90
2023-03-05T06:20:06.931Z,9.45
2023-03-05T06:22:38.364Z,9.90
2023-03-05T06:25:07.910Z,14.32
2023-03-05T06:27:37.093Z,15.23
2023-03-05T06:30:07.091Z,11.20
2023-03-05T06:32:35.419Z,10.15
2023-03-05T06:35:03.945Z,9.00
2023-03-05T06:37:32.254Z,10.82
2023-03-05T06:40:01.975Z,10.95
2023-03-05T06:42:30.376Z,10.13
2023-03-05T06:44:58.744Z,14.63
2023-03-05T06:47:27.047Z,8.80
2023-03-05T06:49:55.435Z,10.60
2023-03-05T06:52:23.741Z,11.55
2023-03-05T06:54:52.807Z,8.65
2023-03-05T06:57:22.635Z,13.85
2023-03-05T06:59:51.202Z,9.50
2023-03-05T07:02:20.059Z,13.40
2023-03-05T07:04:48.435Z,12.38
2023-03-05T07:07:16.790Z,10.45
2023-03-05T07:09:45.932Z,9.52
2023-03-05T07:12:14.628Z,9.73
2023-03-05T07:14:44.262Z,9.82
2023-03-05T07:17:15.269Z,9.95
2023-03-05T07:19:43.962Z,13.60
2023-03-05T07:22:12.270Z,9.95
2023-03-05T07:24:40.659Z,9.68
2023-03-05T07:27:08.956Z,9.48
2023-03-05T07:29:37.310Z,13.73
2023-03-05T07:32:07.560Z,10.77
2023-03-05T07:34:38.027Z,9.45
2023-03-05T07:37:06.675Z,9.85
2023-03-05T07:39:35.009Z,9.30
2023-03-05T07:42:03.557Z,9.38
2023-03-05T07:44:31.911Z,8.30
2023-03-05T07:47:00.246Z,7.13
2023-03-05T07:49:29.929Z,7.00
2023-03-05T07:51:58.236Z,10.38
2023-03-05T07:54:26.690Z,10.02
2023-03-05T07:56:55.887Z,9.32
2023-03-05T07:59:24.208Z,9.57
2023-03-05T08:01:52.541Z,11.20
2023-03-05T08:04:20.907Z,12.57
2023-03-05T08:06:50.854Z,9.15
2023-03-05T08:09:20.169Z,14.50
2023-03-05T08:11:48.660Z,12.93
2023-03-05T08:14:17.168Z,9.93
2023-03-05T08:16:48.336Z,14.70
2023-03-05T08:19:16.966Z,10.65
2023-03-05T08:21:46.310Z,14.95
2023-03-05T08:24:16.292Z,8.80
2023-03-05T08:26:44.761Z,11.30
2023-03-05T08:29:13.069Z,12.48
2023-03-05T08:31:41.684Z,15.68
2023-03-05T08:34:10.196Z,16.70
2023-03-05T08:36:38.522Z,9.85
2023-03-05T08:39:08.534Z,9.80
2023-03-05T08:41:38.397Z,9.98
2023-03-05T08:44:06.830Z,10.65
2023-03-05T08:46:35.308Z,8.25
2023-03-05T08:49:03.822Z,9.95
2023-03-05T08:51:32.368Z,10.38
2023-03-05T08:54:01.852Z,11.38
2023-03-05T08:56:31.422Z,7.63
2023-03-05T08:59:01.221Z,9.85
2023-03-05T09:01:30.816Z,12.05
2023-03-05T09:04:00.419Z,7.97
2023-03-05T09:06:29.374Z,9.75
2023-03-05T09:08:57.797Z,8.35
2023-03-05T09:11:26.211Z,12.02
2023-03-05T09:13:54.551Z,7.60
2023-03-05T09:16:24.366Z,10.30
2023-03-05T09:18:52.741Z,10.48
2023-03-05T09:21:21.152Z,9.35
2023-03-05T09:23:49.494Z,9.65
2023-03-05T09:26:20.759Z,10.35
2023-03-05T09:28:49.308Z,11.75
2023-03-05T09:31:18.319Z,11.68
2023-03-05T09:33:49.133Z,12.27
2023-03-05T09:36:21.065Z,14.18
2023-03-05T09:38:49.705Z,7.93
2023-03-05T09:41:27.399Z,12.40
2023-03-05T09:44:03.028Z,7.22
2023-03-05T09:46:45.306Z,8.27
2023-03-05T09:49:21.949Z,8.65
2023-03-05T09:51:55.566Z,8.55
2023-03-05T09:54:29.144Z,12.40
2023-03-05T09:57:04.358Z,9.02
2023-03-05T09:59:38.440Z,6.10
2023-03-05T10:02:17.303Z,7.13
2023-03-05T10:04:52.665Z,8.73
2023-03-05T10:07:27.166Z,7.70
2023-03-05T10:09:59.294Z,7.63
2023-03-05T10:12:42.284Z,7.60
2023-03-05T10:15:14.452Z,8.93
2023-03-05T10:17:55.891Z,12.50
2023-03-05T10:20:34.251Z,7.88
2023-03-05T10:23:17.876Z,7.88
2023-03-05T10:25:59.258Z,9.07
2023-03-05T10:28:36.912Z,14.05
2023-03-05T10:31:24.834Z,8.68
2023-03-05T10:34:04.460Z,9.23
2023-03-05T10:36:46.852Z,8.23
2023-03-05T10:40:00.849Z,9.05
2023-03-05T10:42:36.709Z,11.43
2023-03-05T10:45:15.150Z,12.85
2023-03-05T10:47:50.469Z,10.45
2023-03-05T10:50:22.613Z,13.45
2023-03-05T10:53:04.268Z,11.38
2023-03-05T10:55:33.260Z,10.88
2023-03-05T10:58:03.290Z,11.00
2023-03-05T11:00:32.273Z,13.02
2023-03-05T11:03:02.721Z,10.90
2023-03-05T11:05:45.580Z,10.05
2023-03-05T11:08:33.213Z,13.70
2023-03-05T11:11:14.771Z,8.20
2023-03-05T11:14:00.008Z,9.88
2023-03-05T11:16:30.555Z,14.30
2023-03-05T11:19:19.954Z,14.90
2023-03-05T11:22:05.686Z,8.63
2023-03-05T11:24:35.388Z,12.30
2023-03-05T11:27:10.270Z,12.13
2023-03-05T11:29:49.503Z,9.10
2023-03-05T11:32:22.608Z,12.35
2023-03-05T11:34:51.207Z,6.50
2023-03-05T11:37:27.238Z,8.70
2023-03-05T11:40:21.035Z,10.52
2023-03-05T11:42:56.540Z,9.60
2023-03-05T11:45:26.676Z,9.82
2023-03-05T11:47:57.098Z,14.05
2023-03-05T11:50:27.595Z,12.57
2023-03-05T11:52:58.796Z,10.63
2023-03-05T11:55:31.076Z,14.07
2023-03-05T11:58:14.017Z,8.88
2023-03-05T12:00:45.808Z,7.40
2023-03-05T12:03:17.155Z,11.38
2023-03-05T12:05:49.275Z,11.52
2023-03-05T12:08:25.572Z,8.02
2023-03-05T12:10:58.525Z,10.73
2023-03-05T12:13:32.708Z,14.55
2023-03-05T12:16:11.525Z,12.45
2023-03-05T12:18:49.047Z,12.02
2023-03-05T12:21:26.566Z,7.65
2023-03-05T12:23:58.988Z,10.85
2023-03-05T12:27:07.114Z,11.82
2023-03-05T12:29:41.838Z,9.82
2023-03-05T12:32:43.432Z,10.60
2023-03-05T12:35:24.676Z,9.02
2023-03-05T12:38:06.158Z,7.95
2023-03-05T12:40:39.377Z,6.32
2023-03-05T12:43:30.202Z,7.43
2023-03-05T12:46:26.792Z,9.68
2023-03-05T12:48:55.243Z,9.52
2023-03-05T12:51:39.731Z,9.57
2023-03-05T12:54:29.011Z,11.88
2023-03-05T12:56:58.828Z,10.27
2023-03-05T12:59:38.401Z,9.13
2023-03-05T13:02:20.214Z,7.15
2023-03-05T13:04:49.263Z,8.88
2023-03-05T13:07:19.741Z,12.30
2023-03-05T13:09:55.710Z,12.25
2023-03-05T13:12:26.041Z,12.18
2023-03-05T13:15:03.621Z,12.25
2023-03-05T13:17:37.975Z,9.88
2023-03-05T13:22:49.519Z,10.45
2023-03-05T13:25:20.590Z,10.38
2023-03-05T13:27:48.988Z,11.20
2023-03-05T13:30:28.060Z,15.80
2023-03-05T13:33:02.844Z,11.30
2023-03-05T13:35:31.671Z,8.27
2023-03-05T13:38:00.827Z,6.30
2023-03-05T13:40:30.635Z,6.57
2023-03-05T13:43:11.992Z,11.27
2023-03-05T13:45:44.433Z,9.50
2023-03-05T13:48:20.477Z,9.85
2023-03-05T13:50:56.240Z,9.60
2023-03-05T13:53:26.736Z,10.27
2023-03-05T13:55:58.247Z,9.95
2023-03-05T13:58:53.247Z,6.82
2023-03-05T14:01:36.713Z,10.70
2023-03-05T14:04:09.057Z,12.10
2023-03-05T14:06:42.548Z,9.88
2023-03-05T14:09:21.267Z,8.73
2023-03-05T14:11:58.170Z,13.88
2023-03-05T14:14:28.329Z,11.32
2023-03-05T14:17:38.556Z,7.88
2023-03-05T14:20:23.051Z,8.02
2023-03-05T14:22:53.422Z,8.25
2023-03-05T14:25:34.944Z,15.85
2023-03-05T14:28:05.385Z,13.05
2023-03-05T14:30:36.092Z,7.78
2023-03-05T14:33:06.176Z,10.13
2023-03-05T14:35:34.627Z,11.98
2023-03-05T14:38:03.304Z,13.25
2023-03-05T14:40:33.974Z,10.85
2023-03-05T14:43:04.017Z,8.00
2023-03-05T14:45:34.540Z,12.82
2023-03-05T14:48:07.101Z,11.23
2023-03-05T14:50:37.877Z,9.57
2023-03-05T14:53:10.018Z,6.30
2023-03-05T14:55:39.336Z,10.25
2023-03-05T14:58:13.278Z,9.35
2023-03-05T15:00:41.841Z,7.82
2023-03-05T15:03:13.404Z,11.43
2023-03-05T15:05:42.338Z,11.30
2023-03-05T15:08:15.713Z,10.43
2023-03-05T15:10:44.107Z,7.95
2023-03-05T15:13:14.480Z,9.25
2023-03-05T15:15:43.936Z,11.07
2023-03-05T15:18:15.182Z,10.70
2023-03-05T15:20:44.003Z,7.95
2023-03-05T15:23:13.212Z,9.52
2023-03-05T15:25:42.417Z,12.23
2023-03-05T15:28:11.132Z,6.38
2023-03-05T15:30:42.422Z,8.48
2023-03-05T15:33:13.950Z,7.65
2023-03-05T15:35:42.919Z,9.25
2023-03-05T15:38:11.607Z,7.38
2023-03-05T15:40:40.015Z,11.45
2023-03-05T15:43:08.382Z,9.07
2023-03-05T15:45:36.697Z,8.20
2023-03-05T15:48:05.447Z,11.27
2023-03-05T15:50:35.436Z,6.45
2023-03-05T15:53:03.728Z,10.98
2023-03-05T15:55:32.106Z,11.05
2023-03-05T15:58:00.471Z,8.85
2023-03-05T16:00:31.822Z,10.00
2023-03-05T16:03:00.236Z,10.40
2023-03-05T16:05:28.738Z,16.00
2023-03-05T16:07:59.918Z,11.13
2023-03-05T16:10:30.715Z,8.88
2023-03-05T16:13:02.624Z,8.65
2023-03-05T16:15:33.278Z,10.98
2023-03-05T16:18:05.692Z,10.93
2023-03-05T16:20:36.201Z,11.32
2023-03-05T16:23:07.072Z,11.02
2023-03-05T16:25:35.611Z,12.07
2023-03-05T16:28:04.188Z,9.27
2023-03-05T16:30:33.509Z,11.07
2023-03-05T16:33:01.902Z,12.88
2023-03-05T16:35:30.800Z,11.77
2023-03-05T16:37:59.311Z,14.98
2023-03-05T16:40:38.813Z,13.50
2023-03-05T16:43:17.729Z,17.75
2023-03-05T16:45:46.027Z,11.55
2023-03-05T16:48:14.338Z,11.40
2023-03-05T16:50:42.645Z,25.38
2023-03-05T16:53:11.006Z,14.57
2023-03-05T16:55:40.769Z,19.15
2023-03-05T16:58:09.047Z,18.73
2023-03-05T17:00:37.847Z,24.30
2023-03-05T17:03:06.973Z,13.00
2023-03-05T17:05:36.949Z,13.35
2023-03-05T17:08:05.997Z,20.98
2023-03-05T17:10:34.656Z,13.63
2023-03-05T17:13:05.195Z,15.38
2023-03-05T17:15:34.055Z,15.13
2023-03-05T17:18:02.560Z,15.65
2023-03-05T17:20:31.201Z,12.63
2023-03-05T17:23:02.089Z,10.68
2023-03-05T17:25:30.606Z,10.45
2023-03-05T17:27:59.813Z,13.02
2023-03-05T17:30:31.307Z,10.38
2023-03-05T17:32:59.835Z,9.00
2023-03-05T17:35:29.635Z,11.07
2023-03-05T17:37:59.031Z,12.18
2023-03-05T17:40:27.406Z,10.88
2023-03-05T17:42:56.095Z,14.23
2023-03-05T17:45:24.667Z,9.50
2023-03-05T17:47:54.434Z,15.30
2023-03-05T17:50:22.808Z,10.57
2023-03-05T17:52:51.191Z,10.07
2023-03-05T17:55:20.126Z,12.65
2023-03-05T17:57:48.467Z,9.02
2023-03-05T18:00:19.539Z,12.63
2023-03-05T18:02:48.399Z,11.90
2023-03-05T18:05:19.257Z,9.23
2023-03-05T18:07:48.199Z,17.02
2023-03-05T18:10:19.389Z,16.70
2023-03-05T18:12:48.244Z,61.75
2023-03-05T18:15:19.775Z,50.15
2023-03-05T18:17:48.271Z,28.50
2023-03-05T18:20:27.399Z,27.98
2023-03-05T18:22:56.857Z,43.85
2023-03-05T18:25:30.796Z,52.60
2023-03-05T18:28:00.664Z,36.10
2023-03-05T18:30:29.789Z,74.68
2023-03-05T18:32:58.834Z,58.05
2023-03-05T18:35:30.025Z,58.05
2023-03-05T18:37:58.591Z,54.30
2023-03-05T18:40:29.136Z,36.83
2023-03-05T18:43:01.352Z,34.72
2023-03-05T18:45:31.097Z,21.85
2023-03-05T18:47:59.429Z,15.38
2023-03-05T18:50:29.839Z,49.10
2023-03-05T18:52:58.300Z,36.28
2023-03-05T18:55:29.055Z,43.70
2023-03-05T18:57:58.253Z,26.75
2023-03-05T19:00:28.839Z,17.23
2023-03-05T19:02:58.536Z,16.92
2023-03-05T19:05:27.629Z,13.05
2023-03-05T19:07:58.452Z,18.98
2023-03-05T19:10:29.364Z,25.50
2023-03-05T19:13:08.038Z,20.73
2023-03-05T19:15:36.373Z,16.50
2023-03-05T19:18:04.916Z,21.98
2023-03-05T19:20:33.408Z,15.23
2023-03-05T19:23:03.257Z,21.25
2023-03-05T19:25:31.661Z,25.77
2023-03-05T19:28:00.033Z,31.30
2023-03-05T19:30:28.540Z,27.52
2023-03-05T19:32:57.600Z,26.73
2023-03-05T19:35:26.015Z,29.83
2023-03-05T19:37:54.383Z,27.27
2023-03-05T19:40:24.413Z,32.15
2023-03-05T19:42:52.805Z,42.17
2023-03-05T19:45:21.195Z,29.63
2023-03-05T19:47:49.540Z,38.63
2023-03-05T19:50:18.152Z,49.58
2023-03-05T19:52:46.565Z,29.40
2023-03-05T19:55:15.156Z,25.25
2023-03-05T19:57:46.364Z,15.55
2023-03-05T20:00:15.179Z,29.55
2023-03-05T20:02:44.152Z,18.98
2023-03-05T20:05:12.533Z,12.95
2023-03-05T20:07:40.852Z,19.10
2023-03-05T20:10:10.082Z,18.60
2023-03-05T20:12:39.230Z,14.80
2023-03-05T20:15:09.754Z,19.75
2023-03-05T20:17:38.120Z,37.47
2023-03-05T20:20:08.053Z,19.52
2023-03-05T20:22:36.446Z,13.60
2023-03-05T20:25:06.820Z,14.32
2023-03-05T20:27:35.194Z,14.10
2023-03-05T20:30:05.167Z,11.98
2023-03-05T20:32:34.886Z,15.00
2023-03-05T20:35:03.212Z,12.63
2023-03-05T20:37:40.078Z,15.45
2023-03-05T20:40:10.020Z,21.48
2023-03-05T20:42:38.500Z,22.13
2023-03-05T20:45:08.100Z,19.98
2023-03-05T20:47:40.819Z,22.50
2023-03-05T20:50:10.817Z,14.95
2023-03-05T20:52:39.727Z,16.73
2023-03-05T20:55:09.742Z,22.20
2023-03-05T20:57:39.098Z,14.57
2023-03-05T21:00:08.558Z,16.63
2023-03-05T21:02:38.227Z,18.10
2023-03-05T21:05:07.435Z,17.27
2023-03-05T21:07:35.936Z,21.02
2023-03-05T21:10:04.872Z,19.35
2023-03-05T21:12:33.415Z,25.30
2023-03-05T21:15:01.766Z,17.10
2023-03-05T21:17:30.097Z,22.00
2023-03-05T21:19:59.811Z,14.80
2023-03-05T21:22:28.490Z,20.42
2023-03-05T21:25:03.275Z,16.88
2023-03-05T21:27:31.635Z,12.13
2023-03-05T21:29:59.928Z,15.85
2023-03-05T21:32:28.257Z,17.40
2023-03-05T21:34:57.230Z,13.00
2023-03-05T21:37:27.981Z,23.60
2023-03-05T21:39:56.454Z,16.17
2023-03-05T21:42:24.995Z,17.45
2023-03-05T21:44:53.331Z,19.60
2023-03-05T21:47:21.633Z,19.45
2023-03-05T21:49:49.987Z,17.77
2023-03-05T21:52:19.347Z,18.50
2023-03-05T21:54:49.080Z,22.58
2023-03-05T21:57:17.370Z,18.63
2023-03-05T21:59:45.690Z,26.90
2023-03-05T22:02:15.732Z,20.88
2023-03-05T22:04:44.354Z,20.08
2023-03-05T22:07:12.998Z,27.60
2023-03-05T22:09:41.331Z,17.45
2023-03-05T22:12:15.071Z,19.08
2023-03-05T22:14:43.382Z,32.65
2023-03-05T22:17:11.695Z,24.20
2023-03-05T22:19:39.993Z,35.67
2023-03-05T22:22:08.384Z,33.97
2023-03-05T22:24:36.672Z,23.35
2023-03-05T22:27:05.164Z,21.33
2023-03-05T22:29:34.862Z,15.27
2023-03-05T22:32:03.241Z,29.00
2023-03-05T22:34:31.689Z,35.40
2023-03-05T22:37:00.022Z,32.63
2023-03-05T22:39:28.446Z,34.35
2023-03-05T22:41:56.733Z,30.63
2023-03-05T22:44:25.218Z,29.55
2023-03-05T22:46:54.968Z,41.85
2023-03-05T22:49:23.327Z,34.20
2023-03-05T22:51:51.640Z,29.10
2023-03-05T22:54:20.007Z,25.45
2023-03-05T22:56:48.475Z,17.00
2023-03-05T22:59:16.797Z,21.13
2023-03-05T23:01:45.146Z,18.75
2023-03-05T23:04:29.477Z,18.45
2023-03-05T23:06:57.800Z,18.30
2023-03-05T23:09:26.250Z,18.90
2023-03-05T23:11:54.543Z,20.90
2023-03-05T23:14:22.873Z,24.88
2023-03-05T23:16:51.227Z,17.67
2023-03-05T23:19:20.898Z,15.38
2023-03-05T23:21:49.262Z,14.77
2023-03-05T23:24:17.614Z,13.93
2023-03-05T23:26:46.033Z,13.25
2023-03-05T23:29:14.795Z,17.10
2023-03-05T23:31:43.113Z,14.18
2023-03-05T23:34:11.698Z,13.07
2023-03-05T23:36:42.151Z,14.88
2023-03-05T23:39:10.536Z,12.73
2023-03-05T23:41:38.861Z,11.95
2023-03-05T23:44:07.165Z,12.52
2023-03-05T23:46:35.601Z,13.63
2023-03-05T23:49:03.961Z,14.00
2023-03-05T23:51:32.335Z,12.60
2023-03-05T23:54:02.033Z,14.07
2023-03-05T23:56:31.426Z,12.82
2023-03-05T23:59:00.580Z,12.82
